createdAt,value
2019-04-14T00:02:22.882Z,100332.25
2019-04-14T00:04:57.211Z,100335.90
2019-04-14T00:07:29.864Z,100336.50
2019-04-14T00:10:02.938Z,100326.31
2019-04-14T00:12:35.834Z,100326.72
2019-04-14T00:15:23.446Z,100328.95
2019-04-14T00:17:45.575Z,100322.37
2019-04-14T00:20:18.610Z,100326.31
2019-04-14T00:22:53.407Z,100327.47
2019-04-14T00:25:26.222Z,100331.78
2019-04-14T00:27:58.632Z,100329.83
2019-04-14T00:30:31.632Z,100322.77
2019-04-14T00:33:06.271Z,100322.98
2019-04-14T00:35:47.172Z,100319.17
2019-04-14T00:38:26.067Z,100316.66
2019-04-14T00:41:07.965Z,100315.22
2019-04-14T00:43:50.600Z,100311.48
2019-04-14T00:46:31.237Z,100311.86
2019-04-14T00:49:02.823Z,100310.70
2019-04-14T00:51:37.743Z,100310.97
2019-04-14T00:54:08.941Z,100311.75
2019-04-14T00:56:41.894Z,100312.20
2019-04-14T00:59:13.893Z,100305.49
2019-04-14T01:01:46.011Z,100303.45
2019-04-14T01:04:18.713Z,100296.41
2019-04-14T01:06:51.737Z,100301.80
2019-04-14T01:09:24.044Z,100290.39
2019-04-14T01:11:57.428Z,100296.89
2019-04-14T01:14:29.866Z,100292.08
2019-04-14T01:17:03.151Z,100291.48
2019-04-14T01:19:35.308Z,100287.46
2019-04-14T01:22:07.495Z,100282.58
2019-04-14T01:24:40.383Z,100287.16
2019-04-14T01:27:14.598Z,100284.52
2019-04-14T01:29:47.369Z,100278.98
2019-04-14T01:32:19.969Z,100275.78
2019-04-14T01:34:54.472Z,100277.76
2019-04-14T01:37:27.507Z,100267.66
2019-04-14T01:40:03.194Z,100264.94
2019-04-14T01:42:35.632Z,100266.28
2019-04-14T01:45:10.057Z,100264.19
2019-04-14T01:47:42.380Z,100258.80
2019-04-14T01:50:14.925Z,100259.85
2019-04-14T01:53:05.416Z,100258.11
2019-04-14T01:55:52.672Z,100260.54
2019-04-14T01:58:36.666Z,100257.81
2019-04-14T02:01:31.046Z,100250.95
2019-04-14T02:04:03.102Z,100244.73
2019-04-14T02:06:35.625Z,100241.47
2019-04-14T02:09:12.046Z,100245.30
2019-04-14T02:11:44.567Z,100236.53
2019-04-14T02:14:16.898Z,100228.17
2019-04-14T02:16:54.108Z,100231.17
2019-04-14T02:19:24.081Z,100229.25
2019-04-14T02:21:56.449Z,100230.39
2019-04-14T02:24:28.913Z,100232.09
2019-04-14T02:29:45.174Z,100227.37
2019-04-14T02:32:45.418Z,100226.23
2019-04-14T02:35:22.274Z,100224.91
2019-04-14T02:37:55.948Z,100224.34
2019-04-14T02:40:34.792Z,100227.19
2019-04-14T02:42:56.355Z,100220.06
2019-04-14T02:45:46.780Z,100213.84
2019-04-14T02:48:33.428Z,100213.84
2019-04-14T02:50:49.557Z,100207.06
2019-04-14T02:53:23.893Z,100201.44
2019-04-14T02:56:08.238Z,100197.67
2019-04-14T02:58:40.406Z,100200.00
2019-04-14T03:01:07.001Z,100200.60
2019-04-14T03:03:41.551Z,100201.05
2019-04-14T03:06:12.194Z,100202.28
2019-04-14T03:08:51.410Z,100207.39
2019-04-14T03:11:25.791Z,100202.66
2019-04-14T03:14:00.444Z,100204.94
2019-04-14T03:17:05.649Z,100201.99
2019-04-14T03:20:07.107Z,100204.15
2019-04-14T03:22:45.891Z,100197.20
2019-04-14T03:25:29.645Z,100198.70
2019-04-14T03:34:17.624Z,100193.84
2019-04-14T03:37:16.239Z,100194.45
2019-04-14T03:39:00.523Z,100190.42
2019-04-14T03:43:54.980Z,100193.50
2019-04-14T03:46:53.087Z,100188.27
2019-04-14T03:51:45.141Z,100184.98
2019-04-14T03:54:07.954Z,100181.75
2019-04-14T03:56:51.774Z,100175.60
2019-04-14T03:59:28.065Z,100168.12
2019-04-14T04:02:00.878Z,100172.91
2019-04-14T04:04:33.799Z,100171.08
2019-04-14T04:07:06.564Z,100165.05
2019-04-14T04:09:43.684Z,100171.63
2019-04-14T04:12:16.050Z,100168.15
2019-04-14T04:14:48.586Z,100170.19
2019-04-14T04:17:40.892Z,100170.27
2019-04-14T04:20:37.776Z,100164.09
2019-04-14T04:23:22.775Z,100158.33
2019-04-14T04:26:10.451Z,100154.65
2019-04-14T04:29:02.973Z,100157.09
2019-04-14T04:32:06.031Z,100157.61
2019-04-14T04:35:00.199Z,100160.23
2019-04-14T04:37:45.501Z,100155.70
2019-04-14T04:40:24.594Z,100157.31
2019-04-14T04:42:57.105Z,100149.44
2019-04-14T04:45:30.614Z,100147.48
2019-04-14T04:48:04.455Z,100143.39
2019-04-14T04:50:37.299Z,100140.70
2019-04-14T04:53:11.526Z,100137.80
2019-04-14T04:55:44.152Z,100140.28
2019-04-14T04:58:17.275Z,100133.67
2019-04-14T05:00:53.929Z,100131.48
2019-04-14T05:03:25.398Z,100133.77
2019-04-14T05:06:11.841Z,100138.40
2019-04-14T05:08:50.316Z,100138.30
2019-04-14T05:11:31.665Z,100134.34
2019-04-14T05:14:11.614Z,100136.62
2019-04-14T05:16:43.996Z,100138.20
2019-04-14T05:19:23.757Z,100131.16
2019-04-14T05:21:55.905Z,100127.12
2019-04-14T05:24:29.074Z,100121.65
2019-04-14T05:27:02.044Z,100124.20
2019-04-14T05:29:34.462Z,100125.86
2019-04-14T05:32:06.670Z,100128.62
2019-04-14T05:34:39.011Z,100131.81
2019-04-14T05:37:11.708Z,100136.21
2019-04-14T05:39:44.093Z,100134.62
2019-04-14T05:42:20.167Z,100137.23
2019-04-14T05:44:49.976Z,100139.03
2019-04-14T05:47:22.145Z,100143.61
2019-04-14T05:49:56.190Z,100143.17
2019-04-14T05:52:29.731Z,100150.06
2019-04-14T05:55:02.527Z,100157.35
2019-04-14T05:57:35.197Z,100158.06
2019-04-14T06:00:12.471Z,100163.05
2019-04-14T06:02:46.241Z,100157.35
2019-04-14T06:05:18.980Z,100161.19
2019-04-14T06:07:51.308Z,100158.16
2019-04-14T06:10:23.446Z,100159.95
2019-04-14T06:12:55.452Z,100163.91
2019-04-14T06:15:27.438Z,100166.52
2019-04-14T06:17:59.422Z,100166.56
2019-04-14T06:20:31.604Z,100167.94
2019-04-14T06:23:06.368Z,100168.01
2019-04-14T06:25:38.315Z,100167.83
2019-04-14T06:28:10.373Z,100166.69
2019-04-14T06:31:02.077Z,100168.28
2019-04-14T06:33:55.697Z,100170.08
2019-04-14T06:36:46.674Z,100173.36
2019-04-14T06:39:43.249Z,100174.61
2019-04-14T06:42:15.334Z,100166.03
2019-04-14T06:44:47.258Z,100167.64
2019-04-14T06:47:19.305Z,100168.11
2019-04-14T06:49:53.204Z,100173.88
2019-04-14T06:52:25.259Z,100169.61
2019-04-14T06:54:57.293Z,100173.02
2019-04-14T06:57:29.794Z,100166.86
2019-04-14T07:00:01.908Z,100170.38
2019-04-14T07:02:35.615Z,100171.30
2019-04-14T07:05:07.807Z,100176.30
2019-04-14T07:07:40.253Z,100180.33
2019-04-14T07:10:12.248Z,100180.38
2019-04-14T07:12:44.256Z,100175.46
2019-04-14T07:15:16.207Z,100175.81
2019-04-14T07:17:48.194Z,100180.66
2019-04-14T07:20:20.141Z,100171.03
2019-04-14T07:22:53.628Z,100173.38
2019-04-14T07:25:25.944Z,100171.98
2019-04-14T07:27:57.918Z,100171.70
2019-04-14T07:30:48.809Z,100172.22
2019-04-14T07:33:39.251Z,100174.22
2019-04-14T07:36:39.613Z,100169.29
2019-04-14T07:39:29.011Z,100169.29
2019-04-14T07:42:15.763Z,100177.20
2019-04-14T07:45:06.565Z,100179.21
2019-04-14T07:48:00.493Z,100181.70
2019-04-14T07:50:55.956Z,100177.50
2019-04-14T07:53:55.634Z,100179.17
2019-04-14T07:56:58.860Z,100175.27
2019-04-14T07:59:36.944Z,100174.56
2019-04-14T08:02:15.301Z,100172.24
2019-04-14T08:05:04.377Z,100171.08
2019-04-14T08:07:36.492Z,100167.19
2019-04-14T08:10:09.204Z,100172.92
2019-04-14T08:12:41.389Z,100166.22
2019-04-14T08:15:13.866Z,100167.86
2019-04-14T08:17:46.062Z,100169.67
2019-04-14T08:20:27.315Z,100169.98
2019-04-14T08:22:51.808Z,100152.82
2019-04-14T08:25:23.819Z,100165.53
2019-04-14T08:27:57.852Z,100165.35
2019-04-14T08:30:30.144Z,100167.11
2019-04-14T08:33:02.981Z,100157.86
2019-04-14T08:35:36.247Z,100164.64
2019-04-14T08:38:08.620Z,100164.20
2019-04-14T08:40:42.323Z,100163.35
2019-04-14T08:43:30.683Z,100165.72
2019-04-14T08:46:21.314Z,100169.52
2019-04-14T08:48:57.614Z,100172.38
2019-04-14T08:51:47.166Z,100176.95
2019-04-14T08:54:56.363Z,100174.84
2019-04-14T08:57:52.284Z,100172.80
2019-04-14T09:00:33.805Z,100176.13
2019-04-14T09:03:23.880Z,100172.22
2019-04-14T09:06:10.530Z,100172.13
2019-04-14T09:08:53.435Z,100171.86
2019-04-14T09:11:36.731Z,100176.08
2019-04-14T09:14:11.603Z,100172.26
2019-04-14T09:16:45.025Z,100179.41
2019-04-14T09:19:19.331Z,100174.77
2019-04-14T09:21:51.343Z,100173.42
2019-04-14T09:24:25.110Z,100179.14
2019-04-14T09:26:57.173Z,100177.61
2019-04-14T09:29:34.480Z,100179.97
2019-04-14T09:32:08.471Z,100179.43
2019-04-14T09:34:40.575Z,100185.82
2019-04-14T09:37:12.532Z,100181.73
2019-04-14T09:39:45.078Z,100180.16
2019-04-14T09:42:17.488Z,100184.56
2019-04-14T09:44:50.991Z,100187.81
2019-04-14T09:47:22.997Z,100186.53
2019-04-14T09:49:55.138Z,100187.01
2019-04-14T09:52:27.476Z,100177.77
2019-04-14T09:54:59.480Z,100186.83
2019-04-14T09:57:31.538Z,100180.80
2019-04-14T10:00:04.883Z,100186.45
2019-04-14T10:02:37.086Z,100176.64
2019-04-14T10:05:09.499Z,100176.02
2019-04-14T10:07:41.598Z,100176.68
2019-04-14T10:10:13.857Z,100179.08
2019-04-14T10:12:46.325Z,100171.31
2019-04-14T10:15:18.358Z,100181.84
2019-04-14T10:17:50.328Z,100178.42
2019-04-14T10:20:22.343Z,100163.47
2019-04-14T10:22:54.504Z,100170.23
2019-04-14T10:25:26.603Z,100166.82
2019-04-14T10:27:59.053Z,100165.98
2019-04-14T10:30:33.527Z,100160.30
2019-04-14T10:33:05.581Z,100166.84
2019-04-14T10:35:37.677Z,100170.20
2019-04-14T10:38:10.223Z,100150.69
2019-04-14T10:40:43.420Z,100169.02
2019-04-14T10:43:15.543Z,100167.74
2019-04-14T10:45:50.415Z,100159.35
2019-04-14T10:48:22.511Z,100156.42
2019-04-14T10:50:54.510Z,100157.11
2019-04-14T10:53:27.329Z,100152.30
2019-04-14T10:55:59.396Z,100144.84
2019-04-14T10:58:38.030Z,100144.20
2019-04-14T11:01:19.397Z,100143.86
2019-04-14T11:03:59.698Z,100134.66
2019-04-14T11:06:45.323Z,100137.12
2019-04-14T11:09:19.211Z,100133.22
2019-04-14T11:11:51.203Z,100127.11
2019-04-14T11:14:23.984Z,100124.38
2019-04-14T11:16:56.076Z,100120.33
2019-04-14T11:19:28.029Z,100126.50
2019-04-14T11:22:02.750Z,100123.69
2019-04-14T11:24:36.334Z,100124.87
2019-04-14T11:27:08.302Z,100124.38
2019-04-14T11:29:40.257Z,100117.17
2019-04-14T11:32:49.222Z,100107.16
2019-04-14T11:35:28.751Z,100106.53
2019-04-14T11:38:31.736Z,100113.89
2019-04-14T11:41:06.999Z,100114.59
2019-04-14T11:43:39.092Z,100116.89
2019-04-14T11:46:11.044Z,100116.80
2019-04-14T11:48:44.818Z,100106.41
2019-04-14T11:51:18.248Z,100108.33
2019-04-14T11:53:50.099Z,100108.84
2019-04-14T11:56:22.038Z,100106.48
2019-04-14T11:58:53.890Z,100100.61
2019-04-14T12:01:43.922Z,100104.82
2019-04-14T12:04:27.967Z,100097.34
2019-04-14T12:20:09.311Z,100090.33
2019-04-14T12:22:41.214Z,100096.17
2019-04-14T12:25:13.130Z,100088.41
2019-04-14T12:27:46.538Z,100089.72
2019-04-14T12:30:20.083Z,100089.62
2019-04-14T12:32:52.329Z,100088.93
2019-04-14T12:35:24.297Z,100091.20
2019-04-14T12:37:56.823Z,100084.36
2019-04-14T12:40:28.906Z,100085.14
2019-04-14T12:43:23.227Z,100079.87
2019-04-14T12:46:14.800Z,100079.08
2019-04-14T12:48:52.118Z,100073.69
2019-04-14T12:51:57.876Z,100078.23
2019-04-14T12:54:29.828Z,100078.55
2019-04-14T12:57:01.718Z,100091.52
2019-04-14T12:59:35.857Z,100080.23
2019-04-14T13:02:32.767Z,100087.08
2019-04-14T13:05:06.424Z,100078.30
2019-04-14T13:07:38.324Z,100078.70
2019-04-14T13:10:10.645Z,100070.30
2019-04-14T13:12:42.563Z,100075.84
2019-04-14T13:15:14.722Z,100080.06
2019-04-14T13:17:47.103Z,100071.31
2019-04-14T13:20:20.661Z,100076.77
2019-04-14T13:22:53.450Z,100068.54
2019-04-14T13:25:25.923Z,100071.58
2019-04-14T13:27:59.282Z,100063.59
2019-04-14T13:30:36.008Z,100062.14
2019-04-14T13:33:09.287Z,100063.16
2019-04-14T13:35:53.362Z,100057.52
2019-04-14T13:38:31.551Z,100056.69
2019-04-14T13:41:11.913Z,100055.36
2019-04-14T13:43:54.946Z,100052.42
2019-04-14T13:46:37.475Z,100044.14
2019-04-14T13:49:17.444Z,100046.98
2019-04-14T13:51:52.046Z,100042.23
2019-04-14T13:54:26.540Z,100044.34
2019-04-14T13:57:09.698Z,100042.96
2019-04-14T13:59:39.185Z,100040.60
2019-04-14T14:02:14.289Z,100040.09
2019-04-14T14:04:46.239Z,100041.28
2019-04-14T14:07:18.563Z,100034.08
2019-04-14T14:09:50.529Z,100034.96
2019-04-14T14:12:27.843Z,100035.75
2019-04-14T14:15:12.013Z,100031.14
2019-04-14T14:17:48.648Z,100031.16
2019-04-14T14:20:43.631Z,100020.59
2019-04-14T14:23:27.823Z,100018.22
2019-04-14T14:26:04.106Z,100015.03
2019-04-14T14:28:38.543Z,100017.56
2019-04-14T14:31:14.043Z,100016.66
2019-04-14T14:33:46.044Z,100016.98
2019-04-14T14:36:18.028Z,100013.61
2019-04-14T14:38:52.761Z,100012.37
2019-04-14T14:41:24.748Z,100006.59
2019-04-14T14:43:58.321Z,100007.92
2019-04-14T14:46:43.646Z,100006.82
2019-04-14T14:49:37.441Z,100002.36
2019-04-14T14:52:11.552Z,100003.85
2019-04-14T14:54:44.700Z,99996.79
2019-04-14T14:57:17.161Z,99995.51
2019-04-14T14:59:49.671Z,99994.58
2019-04-14T15:02:22.659Z,99989.92
2019-04-14T15:04:55.900Z,99981.44
2019-04-14T15:07:28.187Z,99973.45
2019-04-14T15:10:01.603Z,99973.83
2019-04-14T15:12:37.099Z,99967.70
2019-04-14T15:15:10.742Z,99966.17
2019-04-14T15:17:43.218Z,99964.02
2019-04-14T15:20:15.492Z,99953.95
2019-04-14T15:22:48.752Z,99952.97
2019-04-14T15:25:20.926Z,99948.23
2019-04-14T15:27:53.455Z,99949.83
2019-04-14T15:30:26.125Z,99946.92
2019-04-14T15:33:00.026Z,99943.06
2019-04-14T15:35:32.252Z,99944.58
2019-04-14T15:38:04.904Z,99947.31
2019-04-14T15:40:37.118Z,99942.73
2019-04-14T15:43:10.308Z,99938.98
2019-04-14T15:45:42.762Z,99928.92
2019-04-14T15:48:15.450Z,99928.90
2019-04-14T15:50:48.313Z,99933.53
2019-04-14T15:53:21.642Z,99926.03
2019-04-14T15:55:53.679Z,99928.47
2019-04-14T15:58:41.093Z,99925.73
2019-04-14T16:01:35.482Z,99915.95
2019-04-14T16:04:38.284Z,99912.23
2019-04-14T16:07:34.427Z,99909.74
2019-04-14T16:10:19.574Z,99900.08
2019-04-14T16:13:15.316Z,99885.06
2019-04-14T16:16:10.052Z,99883.35
2019-04-14T16:19:15.104Z,99889.84
2019-04-14T16:21:49.666Z,99886.25
2019-04-14T16:24:22.054Z,99875.02
2019-04-14T16:27:18.486Z,99874.27
2019-04-14T16:30:18.991Z,99872.70
2019-04-14T16:33:13.592Z,99872.68
2019-04-14T16:35:46.628Z,99874.58
2019-04-14T16:38:18.989Z,99866.43
2019-04-14T16:40:51.139Z,99863.63
2019-04-14T16:43:26.086Z,99869.56
2019-04-14T16:49:03.004Z,99853.73
2019-04-14T16:51:53.611Z,99850.26
2019-04-14T16:54:45.754Z,99847.79
2019-04-14T16:57:45.563Z,99853.78
2019-04-14T17:00:25.633Z,99843.05
2019-04-14T17:02:58.199Z,99841.73
2019-04-14T17:05:30.820Z,99837.77
2019-04-14T17:08:03.088Z,99836.86
2019-04-14T17:10:35.613Z,99831.23
2019-04-14T17:13:10.991Z,99820.08
2019-04-14T17:16:02.049Z,99819.63
2019-04-14T17:18:52.065Z,99820.64
2019-04-14T17:21:35.377Z,99826.33
2019-04-14T17:24:25.145Z,99829.16
2019-04-14T17:27:05.965Z,99825.48
2019-04-14T17:29:51.157Z,99820.92
2019-04-14T17:32:37.022Z,99824.00
2019-04-14T17:39:06.540Z,99823.61
2019-04-14T17:41:46.318Z,99834.16
2019-04-14T17:44:52.403Z,99840.11
2019-04-14T17:47:47.185Z,99833.17
2019-04-14T17:50:40.488Z,99817.37
2019-04-14T17:53:17.540Z,99817.77
2019-04-14T17:55:57.729Z,99819.63
2019-04-14T17:58:57.800Z,99818.07
2019-04-14T18:01:40.967Z,99815.73
2019-04-14T18:04:34.291Z,99813.33
2019-04-14T18:07:24.295Z,99812.88
2019-04-14T18:10:03.057Z,99807.22
2019-04-14T18:12:39.772Z,99809.11
2019-04-14T18:15:27.942Z,99809.18
2019-04-14T18:18:25.318Z,99813.73
2019-04-14T18:21:02.865Z,99811.71
2019-04-14T18:23:35.005Z,99817.27
2019-04-14T18:26:09.588Z,99813.51
2019-04-14T18:28:51.029Z,99815.46
2019-04-14T18:31:35.452Z,99823.32
2019-04-14T18:34:29.580Z,99818.91
2019-04-14T18:37:24.136Z,99822.61
2019-04-14T18:40:07.522Z,99815.29
2019-04-14T18:42:53.145Z,99809.26
2019-04-14T18:45:35.170Z,99809.04
2019-04-14T18:48:26.464Z,99813.92
2019-04-14T18:51:31.301Z,99806.75
2019-04-14T18:54:29.556Z,99797.04
2019-04-14T18:57:09.757Z,99801.38
2019-04-14T19:00:11.324Z,99799.48
2019-04-14T19:02:46.272Z,99803.22
2019-04-14T19:05:20.986Z,99808.25
2019-04-14T19:07:54.957Z,99805.11
2019-04-14T19:10:32.124Z,99810.59
2019-04-14T19:13:10.818Z,99812.77
2019-04-14T19:15:49.511Z,99812.76
2019-04-14T19:18:37.070Z,99813.92
2019-04-14T19:21:16.398Z,99805.97
2019-04-14T19:23:51.289Z,99806.93
2019-04-14T19:26:27.091Z,99802.31
2019-04-14T19:29:00.311Z,99808.95
2019-04-14T19:31:37.567Z,99819.70
2019-04-14T19:34:14.758Z,99811.73
2019-04-14T19:36:47.620Z,99813.22
2019-04-14T19:39:21.768Z,99828.10
2019-04-14T19:41:54.986Z,99827.12
2019-04-14T19:44:29.472Z,99820.48
2019-04-14T19:47:05.936Z,99830.07
2019-04-14T19:49:41.729Z,99832.42
2019-04-14T19:52:14.637Z,99837.09
2019-04-14T19:54:47.690Z,99823.97
2019-04-14T19:57:22.199Z,99820.67
2019-04-14T20:00:02.056Z,99826.13
2019-04-14T20:02:36.570Z,99846.32
2019-04-14T20:05:14.374Z,99849.31
2019-04-14T20:07:48.371Z,99849.98
2019-04-14T20:10:27.807Z,99847.19
2019-04-14T20:13:02.255Z,99846.84
2019-04-14T20:15:47.337Z,99846.99
2019-04-14T20:18:33.558Z,99857.13
2019-04-14T20:21:42.643Z,99851.98
2019-04-14T20:24:23.130Z,99860.95
2019-04-14T20:27:21.573Z,99862.61
2019-04-14T20:29:58.132Z,99864.59
2019-04-14T20:32:34.241Z,99850.49
2019-04-14T20:35:13.286Z,99851.82
2019-04-14T20:37:48.468Z,99851.98
2019-04-14T20:40:21.139Z,99856.48
2019-04-14T20:42:56.471Z,99851.16
2019-04-14T20:45:28.890Z,99856.13
2019-04-14T20:48:01.135Z,99848.86
2019-04-14T20:50:35.649Z,99853.00
2019-04-14T20:53:10.386Z,99847.02
2019-04-14T20:55:47.207Z,99847.67
2019-04-14T20:58:18.474Z,99847.83
2019-04-14T21:00:50.677Z,99846.04
2019-04-14T21:03:48.061Z,99846.50
2019-04-14T21:06:37.589Z,99849.00
2019-04-14T21:09:22.422Z,99856.09
2019-04-14T21:12:16.548Z,99853.31
2019-04-14T21:15:16.297Z,99850.81
2019-04-14T21:18:13.794Z,99852.16
2019-04-14T21:21:03.769Z,99844.05
2019-04-14T21:23:50.970Z,99842.38
2019-04-14T21:26:31.284Z,99844.03
2019-04-14T21:29:33.864Z,99835.10
2019-04-14T21:32:16.902Z,99829.27
2019-04-14T21:35:09.578Z,99829.48
2019-04-14T21:38:03.923Z,99831.95
2019-04-14T21:40:55.171Z,99837.91
2019-04-14T21:43:34.008Z,99833.80
2019-04-14T21:46:07.249Z,99827.84
2019-04-14T21:48:39.558Z,99833.13
2019-04-14T21:51:12.336Z,99833.64
2019-04-14T21:53:45.644Z,99823.53
2019-04-14T21:56:30.938Z,99823.35
2019-04-14T21:59:14.996Z,99820.88
2019-04-14T22:02:22.250Z,99816.02
2019-04-14T22:05:16.244Z,99818.64
2019-04-14T22:08:04.842Z,99816.46
2019-04-14T22:10:46.782Z,99823.90
2019-04-14T22:13:21.308Z,99816.80
2019-04-14T22:15:57.016Z,99828.75
2019-04-14T22:18:29.364Z,99825.61
2019-04-14T22:21:02.979Z,99829.70
2019-04-14T22:23:36.803Z,99838.61
2019-04-14T22:26:09.586Z,99831.95
2019-04-14T22:28:42.235Z,99830.05
2019-04-14T22:31:16.813Z,99830.12
2019-04-14T22:33:59.149Z,99823.83
2019-04-14T22:36:28.569Z,99823.70
2019-04-14T22:39:06.556Z,99813.13
2019-04-14T22:41:41.743Z,99820.38
2019-04-14T22:44:13.974Z,99821.09
2019-04-14T22:46:54.012Z,99819.17
2019-04-14T22:49:26.916Z,99824.95
2019-04-14T22:52:00.705Z,99820.06
2019-04-14T22:54:33.360Z,99817.03
2019-04-14T22:57:07.519Z,99807.66
2019-04-14T22:59:49.677Z,99809.86
2019-04-14T23:02:52.138Z,99806.34
2019-04-14T23:05:59.258Z,99804.09
2019-04-14T23:08:56.596Z,99797.73
2019-04-14T23:11:57.741Z,99780.73
2019-04-14T23:14:52.407Z,99783.62
2019-04-14T23:17:36.278Z,99778.31
2019-04-14T23:20:46.528Z,99784.53
2019-04-14T23:23:50.042Z,99774.77
2019-04-14T23:26:32.250Z,99769.23
2019-04-14T23:29:13.512Z,99759.81
2019-04-14T23:31:46.962Z,99756.53
2019-04-14T23:34:21.829Z,99751.09
2019-04-14T23:37:00.275Z,99756.23
2019-04-14T23:39:40.891Z,99756.91
2019-04-14T23:42:16.191Z,99743.86
2019-04-14T23:44:49.818Z,99744.18
2019-04-14T23:47:27.694Z,99748.95
2019-04-14T23:50:04.947Z,99750.14
2019-04-14T23:52:37.445Z,99746.99
2019-04-14T23:55:20.819Z,99739.56
2019-04-14T23:57:49.123Z,99735.07
